createdAt,value
2023-04-06T00:02:00.612Z,56.94
2023-04-06T00:04:02.210Z,56.72
2023-04-06T00:06:03.582Z,57.46
2023-04-06T00:08:07.535Z,57.22
2023-04-06T00:10:08.863Z,57.42
2023-04-06T00:12:10.258Z,57.26
2023-04-06T00:14:11.622Z,57.14
2023-04-06T00:16:12.962Z,56.57
2023-04-06T00:18:14.364Z,56.70
2023-04-06T00:20:15.707Z,56.04
2023-04-06T00:22:17.023Z,55.95
2023-04-06T00:24:18.366Z,56.04
2023-04-06T00:26:19.687Z,55.39
2023-04-06T00:28:26.287Z,55.71
2023-04-06T00:30:27.596Z,55.86
2023-04-06T00:32:29.034Z,56.21
2023-04-06T00:34:30.504Z,56.13
2023-04-06T00:36:31.812Z,56.37
2023-04-06T00:38:33.124Z,56.32
2023-04-06T00:40:35.874Z,56.04
2023-04-06T00:42:37.281Z,55.97
2023-04-06T00:44:38.650Z,55.44
2023-04-06T00:46:39.988Z,55.82
2023-04-06T00:48:41.839Z,55.57
2023-04-06T00:50:43.188Z,56.67
2023-04-06T00:52:44.535Z,55.87
2023-04-06T00:54:45.922Z,56.17
2023-04-06T00:56:47.263Z,56.30
2023-04-06T00:58:48.622Z,56.09
2023-04-06T01:00:49.946Z,56.90
2023-04-06T01:02:51.479Z,57.16
2023-04-06T01:04:52.819Z,56.49
2023-04-06T01:06:54.123Z,57.33
2023-04-06T01:08:55.489Z,57.30
2023-04-06T01:10:56.835Z,56.80
2023-04-06T01:12:58.159Z,57.25
2023-04-06T01:14:59.499Z,57.62
2023-04-06T01:17:01.543Z,57.12
2023-04-06T01:19:02.879Z,56.88
2023-04-06T01:21:04.250Z,56.99
2023-04-06T01:23:05.783Z,56.88
2023-04-06T01:25:07.117Z,57.38
2023-04-06T01:27:08.488Z,57.18
2023-04-06T01:29:09.967Z,56.92
2023-04-06T01:31:11.413Z,56.84
2023-04-06T01:33:12.758Z,56.91
2023-04-06T01:35:14.161Z,56.69
2023-04-06T01:37:15.666Z,56.34
2023-04-06T01:39:17.179Z,56.24
2023-04-06T01:41:18.612Z,55.84
2023-04-06T01:43:19.958Z,55.72
2023-04-06T01:45:22.021Z,55.62
2023-04-06T01:47:23.406Z,54.98
2023-04-06T01:49:24.734Z,55.17
2023-04-06T01:51:26.868Z,54.91
2023-04-06T01:53:28.212Z,54.63
2023-04-06T01:55:29.523Z,54.55
2023-04-06T01:57:30.875Z,54.68
2023-04-06T01:59:32.261Z,54.84
2023-04-06T02:01:33.658Z,55.19
2023-04-06T02:03:35.283Z,55.12
2023-04-06T02:05:39.823Z,54.40
2023-04-06T02:07:41.172Z,54.75
2023-04-06T02:09:42.535Z,54.96
2023-04-06T02:11:43.843Z,55.32
2023-04-06T02:13:45.382Z,55.11
2023-04-06T02:15:46.796Z,55.55
2023-04-06T02:17:48.206Z,55.17
2023-04-06T02:19:49.566Z,55.55
2023-04-06T02:21:50.906Z,55.29
2023-04-06T02:23:52.261Z,55.64
2023-04-06T02:25:53.602Z,55.52
2023-04-06T02:27:54.963Z,55.80
2023-04-06T02:29:56.310Z,56.15
2023-04-06T02:31:57.659Z,56.49
2023-04-06T02:33:59.005Z,56.50
2023-04-06T02:36:00.505Z,56.55
2023-04-06T02:38:01.847Z,56.62
2023-04-06T02:40:03.679Z,56.90
2023-04-06T02:42:05.038Z,57.14
2023-04-06T02:44:06.420Z,56.97
2023-04-06T02:46:07.745Z,56.10
2023-04-06T02:48:09.101Z,56.28
2023-04-06T02:50:10.747Z,56.00
2023-04-06T02:52:12.171Z,55.62
2023-04-06T02:54:13.576Z,54.55
2023-04-06T02:56:14.905Z,55.17
2023-04-06T02:58:16.332Z,54.69
2023-04-06T03:00:17.723Z,54.32
2023-04-06T03:02:19.077Z,53.89
2023-04-06T03:04:20.732Z,53.47
2023-04-06T03:06:22.148Z,53.09
2023-04-06T03:08:23.492Z,52.25
2023-04-06T03:10:24.807Z,52.12
2023-04-06T03:12:26.285Z,51.81
2023-04-06T03:14:27.662Z,51.37
2023-04-06T03:16:28.967Z,51.57
2023-04-06T03:18:30.320Z,51.20
2023-04-06T03:20:31.671Z,51.24
2023-04-06T03:22:32.978Z,51.08
2023-04-06T03:24:34.438Z,51.10
2023-04-06T03:26:35.847Z,51.23
2023-04-06T03:28:37.193Z,51.42
2023-04-06T03:30:38.522Z,51.38
2023-04-06T03:32:40.023Z,51.26
2023-04-06T03:34:41.381Z,51.05
2023-04-06T03:36:42.783Z,51.38
2023-04-06T03:38:44.133Z,51.34
2023-04-06T03:40:45.454Z,51.30
2023-04-06T03:42:46.788Z,51.23
2023-04-06T03:44:48.106Z,51.43
2023-04-06T03:46:49.458Z,51.67
2023-04-06T03:48:50.985Z,51.93
2023-04-06T03:50:52.335Z,52.12
2023-04-06T03:52:53.644Z,52.05
2023-04-06T03:54:55.046Z,52.29
2023-04-06T03:56:56.478Z,52.10
2023-04-06T03:58:57.915Z,52.09
2023-04-06T04:00:59.297Z,52.34
2023-04-06T04:03:02.219Z,52.79
2023-04-06T04:05:03.603Z,52.84
2023-04-06T04:07:05.046Z,53.14
2023-04-06T04:09:06.598Z,53.05
2023-04-06T04:11:08.076Z,52.77
2023-04-06T04:13:09.487Z,53.30
2023-04-06T04:15:10.861Z,53.24
2023-04-06T04:17:12.265Z,53.14
2023-04-06T04:19:13.599Z,53.24
2023-04-06T04:21:15.018Z,53.30
2023-04-06T04:23:16.414Z,53.51
2023-04-06T04:25:17.736Z,53.36
2023-04-06T04:27:19.057Z,52.92
2023-04-06T04:29:22.364Z,52.71
2023-04-06T04:31:23.846Z,52.43
2023-04-06T04:33:25.339Z,52.12
2023-04-06T04:35:26.777Z,51.85
2023-04-06T04:37:28.132Z,51.70
2023-04-06T04:39:29.530Z,51.29
2023-04-06T04:41:30.879Z,50.95
2023-04-06T04:43:32.977Z,50.81
2023-04-06T04:45:34.567Z,50.59
2023-04-06T04:47:36.152Z,50.41
2023-04-06T04:49:37.613Z,50.39
2023-04-06T04:51:39.000Z,50.40
2023-04-06T04:53:40.339Z,50.21
2023-04-06T04:55:41.857Z,50.11
2023-04-06T04:57:43.218Z,50.49
2023-04-06T04:59:44.805Z,50.33
2023-04-06T05:01:55.021Z,50.17
2023-04-06T05:03:57.056Z,50.48
2023-04-06T05:05:58.392Z,50.31
2023-04-06T05:07:59.716Z,50.42
2023-04-06T05:10:01.133Z,50.81
2023-04-06T05:12:02.496Z,50.66
2023-04-06T05:14:03.834Z,51.20
2023-04-06T05:16:05.651Z,50.90
2023-04-06T05:18:07.248Z,50.91
2023-04-06T05:20:08.584Z,51.15
2023-04-06T05:22:09.920Z,51.40
2023-04-06T05:24:11.360Z,51.36
2023-04-06T05:26:12.752Z,51.46
2023-04-06T05:28:16.851Z,51.77
2023-04-06T05:30:18.261Z,51.75
2023-04-06T05:32:23.106Z,52.02
2023-04-06T05:34:24.459Z,51.87
2023-04-06T05:36:28.410Z,51.84
2023-04-06T05:38:30.185Z,52.05
2023-04-06T05:40:31.535Z,52.24
2023-04-06T05:42:32.857Z,52.20
2023-04-06T05:44:34.212Z,51.96
2023-04-06T05:46:35.723Z,51.82
2023-04-06T05:48:37.109Z,51.97
2023-04-06T05:50:38.444Z,51.86
2023-04-06T05:52:39.863Z,51.67
2023-04-06T05:54:41.212Z,51.64
2023-04-06T05:56:42.517Z,51.50
2023-04-06T05:58:43.961Z,51.16
2023-04-06T06:00:46.954Z,50.89
2023-04-06T06:02:48.439Z,50.65
2023-04-06T06:04:49.866Z,50.51
2023-04-06T06:06:51.335Z,49.93
2023-04-06T06:08:52.677Z,50.05
2023-04-06T06:10:53.983Z,49.69
2023-04-06T06:12:55.296Z,49.63
2023-04-06T06:14:56.629Z,49.70
2023-04-06T06:16:57.941Z,49.45
2023-04-06T06:18:59.284Z,49.80
2023-04-06T06:21:01.219Z,49.71
2023-04-06T06:23:02.560Z,49.68
2023-04-06T06:25:03.908Z,50.06
2023-04-06T06:27:05.227Z,49.78
2023-04-06T06:29:07.024Z,49.86
2023-04-06T06:31:08.594Z,50.09
2023-04-06T06:33:09.939Z,50.59
2023-04-06T06:35:11.294Z,50.74
2023-04-06T06:37:12.617Z,50.65
2023-04-06T06:39:13.950Z,50.97
2023-04-06T06:41:15.248Z,51.03
2023-04-06T06:43:16.767Z,51.07
2023-04-06T06:45:18.124Z,51.15
2023-04-06T06:47:19.547Z,51.31
2023-04-06T06:49:20.979Z,51.43
2023-04-06T06:51:22.294Z,51.64
2023-04-06T06:53:23.638Z,51.88
2023-04-06T06:55:24.958Z,51.78
2023-04-06T06:57:26.336Z,52.09
2023-04-06T06:59:27.956Z,52.22
2023-04-06T07:01:29.411Z,52.13
2023-04-06T07:03:31.013Z,52.03
2023-04-06T07:05:32.360Z,52.14
2023-04-06T07:07:33.845Z,52.03
2023-04-06T07:09:35.544Z,51.83
2023-04-06T07:11:36.961Z,51.58
2023-04-06T07:13:38.381Z,51.18
2023-04-06T07:15:39.739Z,51.25
2023-04-06T07:17:42.506Z,50.90
2023-04-06T07:19:43.917Z,50.69
2023-04-06T07:21:45.312Z,50.16
2023-04-06T07:23:49.015Z,50.37
2023-04-06T07:25:53.260Z,50.15
2023-04-06T07:27:54.666Z,49.60
2023-04-06T07:29:56.064Z,49.92
2023-04-06T07:31:57.545Z,49.81
2023-04-06T07:33:58.957Z,49.51
2023-04-06T07:36:00.561Z,49.28
2023-04-06T07:38:02.176Z,49.83
2023-04-06T07:40:03.523Z,49.25
2023-04-06T07:42:04.858Z,49.93
2023-04-06T07:44:06.337Z,49.72
2023-04-06T07:46:08.015Z,50.08
2023-04-06T07:48:09.504Z,49.61
2023-04-06T07:50:11.076Z,49.97
2023-04-06T07:52:12.415Z,50.15
2023-04-06T07:54:13.756Z,49.96
2023-04-06T07:56:16.485Z,50.01
2023-04-06T07:58:18.014Z,50.56
2023-04-06T08:00:19.546Z,50.23
2023-04-06T08:02:21.239Z,50.63
2023-04-06T08:04:22.636Z,50.74
2023-04-06T08:06:24.015Z,50.60
2023-04-06T08:08:25.335Z,50.77
2023-04-06T08:10:26.673Z,50.65
2023-04-06T08:12:28.009Z,51.02
2023-04-06T08:14:29.328Z,50.69
2023-04-06T08:16:30.960Z,50.86
2023-04-06T08:18:32.259Z,51.43
2023-04-06T08:20:33.600Z,51.45
2023-04-06T08:22:34.986Z,51.15
2023-04-06T08:24:36.349Z,51.04
2023-04-06T08:26:37.696Z,51.28
2023-04-06T08:28:39.054Z,50.99
2023-04-06T08:30:40.355Z,51.31
2023-04-06T08:32:42.450Z,51.27
2023-04-06T08:34:43.832Z,51.01
2023-04-06T08:36:46.520Z,51.14
2023-04-06T08:38:47.853Z,50.54
2023-04-06T08:40:50.913Z,50.47
2023-04-06T08:42:52.259Z,50.27
2023-04-06T08:44:53.606Z,50.20
2023-04-06T08:46:55.021Z,49.80
2023-04-06T08:48:56.353Z,49.86
2023-04-06T08:51:00.744Z,49.93
2023-04-06T08:53:02.210Z,49.61
2023-04-06T08:55:03.972Z,49.44
2023-04-06T08:57:05.435Z,49.45
2023-04-06T08:59:06.819Z,49.20
2023-04-06T09:01:09.311Z,49.33
2023-04-06T09:03:10.926Z,49.26
2023-04-06T09:05:12.372Z,49.57
2023-04-06T09:07:13.704Z,49.29
2023-04-06T09:09:15.453Z,49.53
2023-04-06T09:11:16.874Z,49.64
2023-04-06T09:13:18.248Z,49.67
2023-04-06T09:15:19.967Z,49.80
2023-04-06T09:17:22.427Z,49.54
2023-04-06T09:19:23.797Z,49.56
2023-04-06T09:21:26.773Z,49.66
2023-04-06T09:23:28.169Z,49.66
2023-04-06T09:25:29.526Z,49.97
2023-04-06T09:27:31.189Z,49.88
2023-04-06T09:29:33.045Z,49.91
2023-04-06T09:31:34.553Z,50.49
2023-04-06T09:33:38.493Z,50.15
2023-04-06T09:35:42.896Z,50.64
2023-04-06T09:37:44.383Z,50.57
2023-04-06T09:39:45.732Z,50.59
2023-04-06T09:41:47.692Z,50.73
2023-04-06T09:43:49.062Z,50.22
2023-04-06T09:45:50.392Z,50.51
2023-04-06T09:47:54.884Z,50.39
2023-04-06T09:49:56.446Z,50.71
2023-04-06T09:51:57.785Z,50.58
2023-04-06T09:54:03.936Z,50.54
2023-04-06T09:56:05.516Z,50.49
2023-04-06T09:58:18.863Z,50.35
2023-04-06T10:00:21.756Z,50.24
2023-04-06T10:02:23.229Z,50.57
2023-04-06T10:04:24.579Z,50.15
2023-04-06T10:06:26.523Z,49.84
2023-04-06T10:08:30.907Z,50.19
2023-04-06T10:10:34.032Z,49.88
2023-04-06T10:12:35.417Z,49.88
2023-04-06T10:14:38.192Z,49.72
2023-04-06T10:16:39.549Z,49.67
2023-04-06T10:18:40.968Z,49.43
2023-04-06T10:20:42.295Z,49.40
2023-04-06T10:22:43.672Z,49.40
2023-04-06T10:24:45.091Z,49.19
2023-04-06T10:26:46.677Z,49.10
2023-04-06T10:28:47.996Z,49.09
2023-04-06T10:30:49.327Z,49.40
2023-04-06T10:32:50.689Z,49.07
2023-04-06T10:34:52.080Z,49.09
2023-04-06T10:36:53.443Z,49.41
2023-04-06T10:38:54.755Z,49.48
2023-04-06T10:40:56.064Z,49.82
2023-04-06T10:42:57.875Z,49.73
2023-04-06T10:44:59.216Z,49.72
2023-04-06T10:47:03.665Z,49.29
2023-04-06T10:49:05.047Z,49.78
2023-04-06T10:51:06.837Z,49.53
2023-04-06T10:53:08.208Z,49.76
2023-04-06T10:55:10.966Z,50.04
2023-04-06T10:57:12.413Z,50.37
2023-04-06T10:59:13.760Z,50.49
2023-04-06T11:01:15.111Z,50.60
2023-04-06T11:03:16.515Z,51.01
2023-04-06T11:05:18.529Z,51.03
2023-04-06T11:07:19.890Z,51.21
2023-04-06T11:09:21.726Z,51.29
2023-04-06T11:11:23.054Z,51.30
2023-04-06T11:13:27.229Z,51.07
2023-04-06T11:15:28.572Z,51.31
2023-04-06T11:17:30.001Z,51.20
2023-04-06T11:19:31.395Z,51.08
2023-04-06T11:21:33.402Z,50.80
2023-04-06T11:23:34.730Z,50.88
2023-04-06T11:25:36.191Z,50.93
2023-04-06T11:27:37.519Z,50.55
2023-04-06T11:29:39.139Z,50.51
2023-04-06T11:31:40.524Z,50.20
2023-04-06T11:33:41.903Z,50.02
2023-04-06T11:35:43.373Z,49.96
2023-04-06T11:37:44.979Z,50.13
2023-04-06T11:39:46.293Z,50.18
2023-04-06T11:41:47.602Z,49.68
2023-04-06T11:43:48.933Z,49.87
2023-04-06T11:45:50.475Z,49.97
2023-04-06T11:47:51.829Z,49.57
2023-04-06T11:49:53.219Z,49.53
2023-04-06T11:51:54.530Z,49.75
2023-04-06T11:53:56.077Z,49.74
2023-04-06T11:55:57.795Z,49.55
2023-04-06T11:57:59.324Z,49.54
2023-04-06T12:00:00.637Z,49.86
2023-04-06T12:02:02.212Z,49.92
2023-04-06T12:04:03.742Z,49.29
2023-04-06T12:06:05.408Z,49.46
2023-04-06T12:08:06.840Z,49.16
2023-04-06T12:10:08.186Z,49.58
2023-04-06T12:12:09.925Z,49.19
2023-04-06T12:14:11.601Z,49.09
2023-04-06T12:16:13.007Z,49.30
2023-04-06T12:18:14.376Z,49.31
2023-04-06T12:20:25.715Z,49.48
2023-04-06T12:22:28.092Z,49.20
2023-04-06T12:24:29.804Z,49.31
2023-04-06T12:26:31.367Z,49.64
2023-04-06T12:28:32.764Z,49.80
2023-04-06T12:30:34.250Z,49.98
2023-04-06T12:32:35.831Z,49.90
2023-04-06T12:34:40.055Z,43.36
2023-04-06T12:36:41.633Z,38.11
2023-04-06T12:38:43.043Z,33.52
2023-04-06T12:40:44.403Z,35.04
2023-04-06T12:42:47.174Z,31.83
2023-04-06T12:44:48.508Z,32.13
2023-04-06T12:46:49.918Z,31.24
2023-04-06T12:48:54.502Z,29.67
2023-04-06T12:50:56.175Z,28.80
2023-04-06T12:52:57.575Z,32.43
2023-04-06T12:55:00.516Z,33.34
2023-04-06T12:57:02.277Z,34.34
2023-04-06T12:59:06.394Z,35.88
2023-04-06T13:01:08.121Z,36.74
2023-04-06T13:03:10.100Z,37.36
2023-04-06T13:05:11.535Z,38.29
2023-04-06T13:07:12.909Z,39.09
2023-04-06T13:09:14.266Z,39.48
2023-04-06T13:11:15.647Z,39.52
2023-04-06T13:13:17.032Z,40.03
2023-04-06T13:15:18.489Z,41.06
2023-04-06T13:17:19.817Z,40.98
2023-04-06T13:19:21.163Z,41.00
2023-04-06T13:21:22.483Z,40.64
2023-04-06T13:23:23.918Z,41.15
2023-04-06T13:25:25.451Z,41.58
2023-04-06T13:27:28.359Z,42.61
2023-04-06T13:29:29.761Z,43.13
2023-04-06T13:31:31.123Z,43.47
2023-04-06T13:33:32.543Z,43.11
2023-04-06T13:35:34.026Z,43.46
2023-04-06T13:37:35.493Z,42.64
2023-04-06T13:39:37.305Z,43.61
2023-04-06T13:41:38.696Z,43.29
2023-04-06T13:43:40.295Z,44.03
2023-04-06T13:45:41.955Z,43.83
2023-04-06T13:47:43.373Z,44.08
2023-04-06T13:49:44.704Z,43.51
2023-04-06T13:51:46.228Z,43.68
2023-04-06T13:53:47.555Z,44.08
2023-04-06T13:55:48.852Z,44.44
2023-04-06T13:57:50.562Z,44.02
2023-04-06T13:59:51.953Z,44.45
2023-04-06T14:01:53.343Z,45.09
2023-04-06T14:03:54.917Z,44.86
2023-04-06T14:05:58.456Z,45.80
2023-04-06T14:07:59.881Z,46.24
2023-04-06T14:10:02.190Z,45.68
2023-04-06T14:12:03.481Z,44.67
2023-04-06T14:14:04.786Z,45.04
2023-04-06T14:16:06.085Z,44.73
2023-04-06T14:18:07.653Z,45.79
2023-04-06T14:20:09.040Z,45.68
2023-04-06T14:22:11.385Z,46.16
2023-04-06T14:24:13.605Z,46.39
2023-04-06T14:26:15.003Z,46.32
2023-04-06T14:28:16.296Z,46.61
2023-04-06T14:30:18.120Z,46.83
2023-04-06T14:32:19.509Z,46.72
2023-04-06T14:34:22.265Z,46.80
2023-04-06T14:36:23.687Z,46.76
2023-04-06T14:38:25.053Z,47.42
2023-04-06T14:40:26.353Z,46.31
2023-04-06T14:42:27.683Z,46.48
2023-04-06T14:44:29.073Z,46.98
2023-04-06T14:46:30.447Z,46.54
2023-04-06T14:48:31.800Z,47.14
2023-04-06T14:50:33.108Z,47.60
2023-04-06T14:52:34.436Z,48.07
2023-04-06T14:54:35.740Z,47.86
2023-04-06T14:56:38.690Z,47.96
2023-04-06T14:58:40.028Z,48.22
2023-04-06T15:00:41.392Z,48.25
2023-04-06T15:02:44.555Z,47.96
2023-04-06T15:04:46.102Z,48.23
2023-04-06T15:06:50.450Z,48.70
2023-04-06T15:08:52.081Z,48.00
2023-04-06T15:10:53.515Z,48.15
2023-04-06T15:12:54.997Z,48.08
2023-04-06T15:14:56.347Z,48.29
2023-04-06T15:16:57.643Z,47.74
2023-04-06T15:18:58.956Z,48.13
2023-04-06T15:21:00.412Z,47.75
2023-04-06T15:23:01.733Z,47.90
2023-04-06T15:25:03.080Z,48.12
2023-04-06T15:27:04.407Z,47.71
2023-04-06T15:29:05.741Z,47.77
2023-04-06T15:31:07.713Z,47.56
2023-04-06T15:33:09.141Z,47.80
2023-04-06T15:35:10.513Z,47.68
2023-04-06T15:37:12.000Z,47.89
2023-04-06T15:39:16.348Z,47.94
2023-04-06T15:41:17.759Z,47.78
2023-04-06T15:43:19.106Z,47.43
2023-04-06T15:45:20.478Z,47.48
2023-04-06T15:47:22.013Z,48.13
2023-04-06T15:49:23.390Z,46.80
2023-04-06T15:51:24.752Z,46.02
2023-04-06T15:53:26.414Z,46.56
2023-04-06T15:55:27.761Z,47.20
2023-04-06T15:57:29.055Z,47.08
2023-04-06T15:59:30.509Z,47.08
2023-04-06T16:01:31.944Z,46.63
2023-04-06T16:03:33.525Z,47.29
2023-04-06T16:05:39.955Z,47.53
2023-04-06T16:07:50.035Z,47.67
2023-04-06T16:09:52.192Z,47.93
2023-04-06T16:11:53.501Z,48.07
2023-04-06T16:13:55.614Z,47.92
2023-04-06T16:15:57.198Z,47.91
2023-04-06T16:17:58.580Z,48.07
2023-04-06T16:19:59.962Z,48.98
2023-04-06T16:22:02.198Z,48.07
2023-04-06T16:24:05.022Z,48.64
2023-04-06T16:26:09.346Z,49.21
2023-04-06T16:28:10.876Z,48.85
2023-04-06T16:30:12.276Z,49.31
2023-04-06T16:32:14.008Z,49.79
2023-04-06T16:34:15.540Z,49.38
2023-04-06T16:36:16.889Z,50.13
2023-04-06T16:38:18.220Z,49.90
2023-04-06T16:40:19.497Z,50.12
2023-04-06T16:42:21.310Z,50.09
2023-04-06T16:44:22.629Z,50.06
2023-04-06T16:46:23.947Z,50.36
2023-04-06T16:48:25.423Z,51.03
2023-04-06T16:50:27.014Z,51.07
2023-04-06T16:52:28.350Z,51.05
2023-04-06T16:54:29.684Z,50.78
2023-04-06T16:56:34.063Z,51.07
2023-04-06T16:58:35.422Z,50.28
2023-04-06T17:00:36.725Z,50.53
2023-04-06T17:02:38.225Z,50.49
2023-04-06T17:04:39.584Z,50.23
2023-04-06T17:06:43.838Z,50.83
2023-04-06T17:08:45.527Z,50.92
2023-04-06T17:10:59.310Z,50.44
2023-04-06T17:13:06.228Z,50.47
2023-04-06T17:15:07.539Z,50.53
2023-04-06T17:17:08.877Z,51.22
2023-04-06T17:19:10.283Z,50.98
2023-04-06T17:21:14.437Z,51.41
2023-04-06T17:23:16.592Z,50.82
2023-04-06T17:25:18.014Z,50.74
2023-04-06T17:27:22.862Z,50.94
2023-04-06T17:29:27.160Z,50.42
2023-04-06T17:31:28.505Z,50.37
2023-04-06T17:33:32.514Z,51.01
2023-04-06T17:35:33.862Z,50.83
2023-04-06T17:37:36.014Z,50.65
2023-04-06T17:39:37.303Z,50.69
2023-04-06T17:41:38.675Z,49.04
2023-04-06T17:43:39.982Z,47.95
2023-04-06T17:45:41.358Z,48.73
2023-04-06T17:47:42.707Z,48.90
2023-04-06T17:49:44.035Z,48.16
2023-04-06T17:51:45.499Z,47.68
2023-04-06T17:53:46.793Z,47.97
2023-04-06T17:55:48.095Z,47.77
2023-04-06T17:57:49.500Z,48.13
2023-04-06T17:59:50.840Z,47.78
2023-04-06T18:01:52.231Z,48.00
2023-04-06T18:03:53.745Z,47.91
2023-04-06T18:05:55.510Z,48.67
2023-04-06T18:07:56.909Z,47.82
2023-04-06T18:10:01.507Z,48.72
2023-04-06T18:12:02.892Z,49.21
2023-04-06T18:14:04.193Z,49.29
2023-04-06T18:16:08.694Z,49.77
2023-04-06T18:18:10.305Z,50.22
2023-04-06T18:20:13.364Z,49.64
2023-04-06T18:22:19.319Z,49.44
2023-04-06T18:24:37.556Z,50.08
2023-04-06T18:26:41.931Z,49.29
2023-04-06T18:28:43.261Z,49.03
2023-04-06T18:30:44.592Z,49.15
2023-04-06T18:32:45.928Z,49.68
2023-04-06T18:34:50.205Z,49.58
2023-04-06T18:36:51.586Z,49.04
2023-04-06T18:38:52.953Z,50.00
2023-04-06T18:40:54.254Z,50.19
2023-04-06T18:42:55.566Z,50.19
2023-04-06T18:44:56.944Z,49.56
2023-04-06T18:46:58.284Z,49.81
2023-04-06T18:48:59.615Z,50.65
2023-04-06T18:51:02.269Z,50.20
2023-04-06T18:53:03.603Z,50.05
2023-04-06T18:55:05.318Z,50.22
2023-04-06T18:57:10.092Z,49.32
2023-04-06T18:59:12.137Z,48.87
2023-04-06T19:01:13.435Z,49.25
2023-04-06T19:03:14.909Z,49.71
2023-04-06T19:05:19.614Z,49.93
2023-04-06T19:07:22.247Z,50.22
2023-04-06T19:11:25.263Z,50.65
2023-04-06T19:13:28.708Z,49.67
2023-04-06T19:15:30.200Z,48.72
2023-04-06T19:17:31.555Z,48.68
2023-04-06T19:19:32.985Z,49.22
2023-04-06T19:21:34.313Z,49.76
2023-04-06T19:23:36.222Z,48.98
2023-04-06T19:25:37.568Z,49.32
2023-04-06T19:27:39.476Z,48.87
2023-04-06T19:31:42.125Z,48.69
2023-04-06T19:33:43.466Z,49.48
2023-04-06T19:35:44.830Z,49.34
2023-04-06T19:37:46.207Z,48.78
2023-04-06T19:39:47.806Z,49.26
2023-04-06T19:41:49.161Z,49.49
2023-04-06T19:43:50.447Z,49.21
2023-04-06T19:45:51.880Z,49.88
2023-04-06T19:47:53.242Z,48.88
2023-04-06T19:49:54.618Z,48.77
2023-04-06T19:51:56.103Z,48.85
2023-04-06T19:53:57.421Z,48.69
2023-04-06T19:55:58.766Z,47.99
2023-04-06T19:58:00.122Z,49.15
2023-04-06T20:00:01.427Z,50.60
2023-04-06T20:02:02.927Z,51.18
2023-04-06T20:04:04.609Z,51.57
2023-04-06T20:06:05.962Z,51.37
2023-04-06T20:08:07.351Z,50.41
2023-04-06T20:10:08.648Z,51.25
2023-04-06T20:12:09.959Z,50.41
2023-04-06T20:14:11.604Z,50.81
2023-04-06T20:16:15.668Z,50.32
2023-04-06T20:18:17.043Z,50.42
2023-04-06T20:20:24.556Z,50.18
2023-04-06T20:22:26.035Z,50.33
2023-04-06T20:24:27.331Z,50.24
2023-04-06T20:26:28.628Z,49.82
2023-04-06T20:28:29.919Z,49.54
2023-04-06T20:30:31.259Z,49.88
2023-04-06T20:32:33.754Z,49.95
2023-04-06T20:34:35.102Z,49.82
2023-04-06T20:36:36.438Z,49.52
2023-04-06T20:38:37.806Z,50.08
2023-04-06T20:40:39.992Z,49.73
2023-04-06T20:42:41.834Z,49.36
2023-04-06T20:44:43.283Z,49.95
2023-04-06T20:46:45.757Z,49.90
2023-04-06T20:48:47.199Z,49.41
2023-04-06T20:50:49.457Z,49.86
2023-04-06T20:52:54.391Z,49.69
2023-04-06T20:54:56.374Z,49.53
2023-04-06T20:57:01.070Z,48.69
2023-04-06T20:59:04.883Z,48.81
2023-04-06T21:01:06.258Z,49.39
2023-04-06T21:03:07.883Z,49.56
2023-04-06T21:05:09.321Z,49.48
2023-04-06T21:07:10.816Z,50.00
2023-04-06T21:09:12.188Z,49.04
2023-04-06T21:11:13.541Z,49.57
2023-04-06T21:13:14.851Z,49.82
2023-04-06T21:15:16.348Z,50.65
2023-04-06T21:17:17.726Z,50.03
2023-04-06T21:19:19.091Z,50.36
2023-04-06T21:21:20.471Z,50.80
2023-04-06T21:23:23.042Z,50.45
2023-04-06T21:25:24.491Z,49.83
2023-04-06T21:27:25.835Z,50.42
2023-04-06T21:29:27.128Z,50.30
2023-04-06T21:31:28.447Z,50.56
2023-04-06T21:33:29.802Z,50.68
2023-04-06T21:35:31.123Z,50.75
2023-04-06T21:37:32.491Z,50.23
2023-04-06T21:39:33.882Z,50.60
2023-04-06T21:41:35.346Z,36.98
2023-04-06T21:43:36.698Z,37.11
2023-04-06T21:45:38.002Z,43.92
2023-04-06T21:47:39.943Z,43.51
2023-04-06T21:49:41.300Z,43.29
2023-04-06T21:51:42.606Z,43.30
2023-04-06T21:53:43.948Z,43.76
2023-04-06T21:55:45.314Z,43.86
2023-04-06T21:57:46.676Z,44.57
2023-04-06T21:59:48.009Z,44.73
2023-04-06T22:01:49.380Z,44.79
2023-04-06T22:03:50.850Z,45.34
2023-04-06T22:05:52.483Z,45.52
2023-04-06T22:07:53.901Z,45.70
2023-04-06T22:09:55.258Z,45.52
2023-04-06T22:11:56.592Z,45.65
2023-04-06T22:13:57.947Z,45.96
2023-04-06T22:15:59.325Z,46.42
2023-04-06T22:18:01.067Z,46.39
2023-04-06T22:20:02.407Z,46.19
2023-04-06T22:22:03.778Z,46.58
2023-04-06T22:24:05.058Z,46.91
2023-04-06T22:26:06.733Z,46.76
2023-04-06T22:28:08.149Z,47.00
2023-04-06T22:30:09.505Z,47.14
2023-04-06T22:32:11.043Z,47.21
2023-04-06T22:34:12.467Z,47.22
2023-04-06T22:36:13.796Z,47.54
2023-04-06T22:38:17.183Z,47.87
2023-04-06T22:40:18.562Z,48.04
2023-04-06T22:42:19.993Z,48.05
2023-04-06T22:44:21.383Z,48.40
2023-04-06T22:46:23.345Z,48.82
2023-04-06T22:48:24.789Z,48.49
2023-04-06T22:50:26.316Z,48.49
2023-04-06T22:52:27.723Z,48.86
2023-04-06T22:54:29.037Z,48.96
2023-04-06T22:56:30.449Z,49.49
2023-04-06T22:58:31.835Z,49.25
2023-04-06T23:00:33.160Z,49.72
2023-04-06T23:02:34.650Z,50.27
2023-04-06T23:04:36.338Z,50.27
2023-04-06T23:06:37.668Z,50.99
2023-04-06T23:08:38.964Z,50.99
2023-04-06T23:10:42.086Z,51.07
2023-04-06T23:12:43.498Z,50.86
2023-04-06T23:14:44.881Z,50.88
2023-04-06T23:16:46.353Z,51.17
2023-04-06T23:18:47.698Z,50.95
2023-04-06T23:20:49.040Z,50.93
2023-04-06T23:22:50.478Z,50.77
2023-04-06T23:24:51.860Z,51.13
2023-04-06T23:26:53.217Z,51.09
2023-04-06T23:28:55.248Z,51.13
2023-04-06T23:30:56.674Z,51.33
2023-04-06T23:32:58.059Z,51.25
2023-04-06T23:34:59.422Z,51.07
2023-04-06T23:37:03.658Z,51.43
2023-04-06T23:39:05.000Z,51.28
2023-04-06T23:41:06.499Z,51.03
2023-04-06T23:43:07.798Z,51.36
2023-04-06T23:45:09.095Z,51.11
2023-04-06T23:47:10.825Z,51.10
2023-04-06T23:49:12.216Z,50.71
2023-04-06T23:51:13.530Z,50.73
2023-04-06T23:53:14.924Z,50.39
2023-04-06T23:55:16.284Z,50.03
2023-04-06T23:57:17.582Z,50.46
2023-04-06T23:59:18.932Z,50.22
